createdAt,value
2019-02-27T00:00:11.402Z,3.77
2019-02-27T00:02:40.743Z,3.83
2019-02-27T00:05:08.973Z,3.47
2019-02-27T00:07:35.384Z,3.80
2019-02-27T00:10:05.945Z,3.80
2019-02-27T00:12:31.304Z,4.03
2019-02-27T00:14:57.525Z,4.20
2019-02-27T00:17:23.713Z,4.12
2019-02-27T00:19:50.050Z,3.83
2019-02-27T00:22:17.712Z,4.10
2019-02-27T00:24:44.476Z,3.98
2019-02-27T00:27:14.586Z,3.92
2019-02-27T00:29:39.029Z,3.75
2019-02-27T00:32:05.260Z,4.03
2019-02-27T00:34:33.003Z,3.80
2019-02-27T00:36:59.597Z,4.33
2019-02-27T00:39:25.768Z,3.92
2019-02-27T00:41:51.954Z,3.62
2019-02-27T00:44:19.286Z,3.80
2019-02-27T00:46:47.278Z,3.52
2019-02-27T00:49:13.477Z,3.40
2019-02-27T00:51:39.649Z,3.60
2019-02-27T00:54:05.848Z,3.92
2019-02-27T00:56:32.017Z,3.37
2019-02-27T00:59:00.205Z,3.47
2019-02-27T01:01:27.390Z,4.30
2019-02-27T01:03:53.605Z,4.00
2019-02-27T01:06:19.764Z,3.90
2019-02-27T01:08:45.973Z,3.95
2019-02-27T01:11:12.176Z,3.70
2019-02-27T01:13:39.481Z,3.05
2019-02-27T01:16:05.676Z,3.37
2019-02-27T01:18:31.863Z,3.85
2019-02-27T01:20:58.045Z,3.90
2019-02-27T01:23:24.221Z,3.58
2019-02-27T01:25:50.428Z,3.60
2019-02-27T01:28:16.694Z,3.52
2019-02-27T01:30:44.543Z,3.22
2019-02-27T01:33:10.752Z,3.52
2019-02-27T01:35:36.928Z,3.25
2019-02-27T01:38:05.262Z,2.83
2019-02-27T01:40:31.226Z,2.72
2019-02-27T01:42:58.789Z,3.12
2019-02-27T01:45:24.957Z,2.65
2019-02-27T01:47:52.258Z,2.60
2019-02-27T01:50:33.126Z,2.50
2019-02-27T01:52:59.321Z,2.75
2019-02-27T01:55:25.542Z,2.77
2019-02-27T01:57:51.734Z,2.90
2019-02-27T02:00:17.929Z,2.42
2019-02-27T02:02:45.059Z,2.72
2019-02-27T02:05:11.231Z,2.72
2019-02-27T02:07:40.162Z,2.90
2019-02-27T02:10:09.117Z,2.70
2019-02-27T02:12:35.408Z,3.10
2019-02-27T02:15:30.928Z,3.30
2019-02-27T02:18:11.867Z,2.67
2019-02-27T02:20:51.092Z,3.08
2019-02-27T02:23:27.139Z,2.58
2019-02-27T02:26:01.355Z,3.47
2019-02-27T02:28:48.860Z,3.27
2019-02-27T02:31:41.617Z,2.90
2019-02-27T02:34:12.475Z,3.25
2019-02-27T02:36:51.720Z,2.70
2019-02-27T02:39:55.728Z,2.62
2019-02-27T02:43:03.111Z,2.72
2019-02-27T02:45:47.913Z,3.10
2019-02-27T02:48:27.937Z,2.60
2019-02-27T02:51:30.059Z,2.47
2019-02-27T02:54:18.160Z,2.95
2019-02-27T02:57:00.076Z,2.90
2019-02-27T02:59:46.426Z,2.67
2019-02-27T03:02:25.537Z,3.08
2019-02-27T03:05:13.510Z,2.70
2019-02-27T03:07:52.593Z,2.50
2019-02-27T03:10:34.107Z,3.52
2019-02-27T03:13:28.035Z,2.90
2019-02-27T03:18:39.887Z,2.67
2019-02-27T03:21:28.855Z,2.70
2019-02-27T03:24:15.413Z,3.35
2019-02-27T03:26:54.361Z,2.62
2019-02-27T03:29:52.184Z,2.85
2019-02-27T03:32:41.248Z,2.70
2019-02-27T03:35:29.091Z,2.75
2019-02-27T03:38:02.861Z,2.95
2019-02-27T03:40:49.814Z,2.42
2019-02-27T03:43:22.907Z,2.60
2019-02-27T03:46:02.943Z,2.83
2019-02-27T03:49:03.147Z,2.60
2019-02-27T03:51:59.943Z,2.58
2019-02-27T03:54:57.080Z,3.12
2019-02-27T03:57:27.128Z,3.67
2019-02-27T04:00:19.170Z,2.60
2019-02-27T04:02:59.473Z,2.62
2019-02-27T04:05:29.846Z,2.95
2019-02-27T04:08:17.900Z,2.80
2019-02-27T04:10:44.094Z,2.60
2019-02-27T04:13:10.249Z,2.67
2019-02-27T04:15:36.442Z,3.08
2019-02-27T04:18:08.404Z,2.85
2019-02-27T04:20:34.604Z,2.62
2019-02-27T04:23:00.795Z,2.90
2019-02-27T04:25:31.121Z,2.80
2019-02-27T04:27:56.193Z,2.98
2019-02-27T04:30:22.642Z,2.87
2019-02-27T04:32:49.024Z,2.90
2019-02-27T04:35:15.269Z,3.00
2019-02-27T04:37:41.422Z,2.62
2019-02-27T04:40:10.846Z,2.85
2019-02-27T04:42:35.679Z,3.10
2019-02-27T04:45:02.507Z,3.10
2019-02-27T04:47:30.310Z,3.10
2019-02-27T04:49:56.476Z,3.00
2019-02-27T04:52:24.425Z,3.00
2019-02-27T04:54:50.746Z,2.72
2019-02-27T04:57:16.935Z,2.80
2019-02-27T04:59:43.193Z,2.45
2019-02-27T05:02:09.397Z,3.20
2019-02-27T05:04:35.886Z,2.65
2019-02-27T05:07:02.140Z,2.87
2019-02-27T05:09:28.416Z,2.70
2019-02-27T05:11:54.639Z,3.08
2019-02-27T05:14:20.957Z,2.92
2019-02-27T05:16:47.802Z,2.37
2019-02-27T05:19:15.289Z,2.75
2019-02-27T05:21:41.540Z,2.45
2019-02-27T05:24:08.616Z,2.83
2019-02-27T05:26:35.030Z,3.12
2019-02-27T05:29:01.225Z,2.45
2019-02-27T05:31:27.414Z,2.45
2019-02-27T05:33:53.606Z,2.83
2019-02-27T05:36:19.776Z,2.52
2019-02-27T05:38:45.983Z,2.33
2019-02-27T05:41:12.152Z,2.80
2019-02-27T05:43:38.403Z,2.58
2019-02-27T05:46:04.589Z,2.72
2019-02-27T05:48:30.804Z,2.72
2019-02-27T05:50:57.144Z,2.65
2019-02-27T05:53:23.415Z,2.98
2019-02-27T05:55:49.573Z,2.83
2019-02-27T05:58:15.806Z,2.85
2019-02-27T06:00:41.968Z,3.05
2019-02-27T06:03:08.169Z,2.50
2019-02-27T06:05:35.916Z,3.58
2019-02-27T06:08:02.878Z,2.55
2019-02-27T06:10:29.108Z,2.85
2019-02-27T06:12:55.268Z,2.30
2019-02-27T06:15:21.491Z,2.45
2019-02-27T06:17:49.098Z,2.52
2019-02-27T06:20:15.770Z,2.67
2019-02-27T06:22:41.940Z,2.58
2019-02-27T06:25:13.324Z,2.60
2019-02-27T06:27:39.939Z,3.15
2019-02-27T06:30:27.953Z,2.85
2019-02-27T06:32:54.465Z,2.87
2019-02-27T06:35:21.739Z,2.12
2019-02-27T06:37:50.465Z,3.10
2019-02-27T06:40:18.094Z,3.05
2019-02-27T06:42:44.473Z,2.60
2019-02-27T06:45:13.402Z,2.60
2019-02-27T06:47:39.571Z,3.20
2019-02-27T06:50:08.837Z,2.92
2019-02-27T06:52:35.021Z,2.70
2019-02-27T06:55:01.310Z,3.20
2019-02-27T06:57:27.506Z,2.83
2019-02-27T06:59:53.901Z,3.15
2019-02-27T07:02:21.707Z,2.75
2019-02-27T07:04:48.180Z,3.20
2019-02-27T07:07:14.344Z,2.98
2019-02-27T07:09:40.542Z,2.77
2019-02-27T07:12:07.296Z,2.50
2019-02-27T07:14:33.689Z,3.33
2019-02-27T07:16:59.854Z,3.00
2019-02-27T07:19:26.037Z,3.40
2019-02-27T07:21:52.226Z,3.12
2019-02-27T07:24:18.709Z,2.90
2019-02-27T07:26:44.872Z,4.03
2019-02-27T07:29:11.056Z,3.27
2019-02-27T07:31:37.213Z,3.30
2019-02-27T07:34:03.405Z,3.77
2019-02-27T07:36:29.587Z,3.12
2019-02-27T07:38:57.655Z,3.75
2019-02-27T07:41:24.140Z,3.35
2019-02-27T07:43:50.309Z,3.35
2019-02-27T07:46:16.490Z,3.60
2019-02-27T07:48:42.660Z,3.45
2019-02-27T07:51:08.856Z,3.45
2019-02-27T07:53:35.019Z,4.00
2019-02-27T07:56:01.518Z,3.30
2019-02-27T07:58:29.275Z,3.67
2019-02-27T08:00:55.909Z,4.22
2019-02-27T08:03:22.080Z,4.47
2019-02-27T08:05:48.612Z,3.90
2019-02-27T08:08:14.922Z,3.85
2019-02-27T08:10:41.089Z,3.05
2019-02-27T08:13:07.291Z,3.37
2019-02-27T08:15:33.560Z,2.83
2019-02-27T08:17:59.917Z,3.58
2019-02-27T08:20:26.198Z,3.15
2019-02-27T08:22:52.388Z,3.80
2019-02-27T08:25:19.555Z,3.58
2019-02-27T08:27:45.723Z,3.20
2019-02-27T08:30:14.988Z,3.65
2019-02-27T08:32:41.186Z,3.10
2019-02-27T08:35:07.336Z,3.75
2019-02-27T08:37:33.505Z,3.50
2019-02-27T08:39:59.711Z,4.10
2019-02-27T08:42:25.907Z,4.03
2019-02-27T08:44:52.105Z,4.22
2019-02-27T08:47:18.267Z,4.55
2019-02-27T08:49:44.445Z,4.70
2019-02-27T08:52:13.133Z,5.08
2019-02-27T08:54:39.717Z,5.12
2019-02-27T08:57:05.888Z,5.00
2019-02-27T08:59:33.159Z,5.85
2019-02-27T09:02:01.024Z,6.03
2019-02-27T09:04:27.220Z,6.50
2019-02-27T09:06:53.392Z,6.90
2019-02-27T09:09:19.558Z,6.20
2019-02-27T09:11:45.788Z,6.75
2019-02-27T09:14:13.349Z,6.80
2019-02-27T09:16:45.897Z,7.55
2019-02-27T09:21:39.352Z,7.12
2019-02-27T09:24:05.504Z,6.05
2019-02-27T09:26:36.000Z,7.42
2019-02-27T09:28:59.754Z,6.45
2019-02-27T09:31:26.073Z,6.83
2019-02-27T09:33:53.316Z,6.92
2019-02-27T09:36:20.297Z,6.45
2019-02-27T09:38:46.494Z,7.17
2019-02-27T09:41:13.088Z,7.25
2019-02-27T09:43:39.459Z,6.35
2019-02-27T09:46:06.312Z,6.60
2019-02-27T09:48:33.449Z,7.05
2019-02-27T09:51:00.280Z,7.08
2019-02-27T09:53:26.445Z,6.87
2019-02-27T09:55:54.336Z,7.33
2019-02-27T09:58:22.573Z,7.35
2019-02-27T10:00:59.197Z,6.92
2019-02-27T10:03:23.835Z,7.53
2019-02-27T10:05:50.028Z,7.90
2019-02-27T10:08:16.193Z,8.15
2019-02-27T10:10:45.170Z,7.72
2019-02-27T10:13:10.449Z,7.60
2019-02-27T10:15:36.625Z,8.15
2019-02-27T10:18:02.801Z,7.83
2019-02-27T10:20:28.994Z,8.08
2019-02-27T10:22:55.138Z,7.90
2019-02-27T10:25:22.391Z,8.65
2019-02-27T10:27:48.596Z,8.25
2019-02-27T10:30:16.701Z,7.85
2019-02-27T10:32:43.385Z,7.37
2019-02-27T10:35:10.529Z,7.65
2019-02-27T10:37:36.733Z,8.53
2019-02-27T10:40:08.743Z,8.08
2019-02-27T10:42:34.970Z,7.45
2019-02-27T10:45:01.139Z,7.45
2019-02-27T10:47:28.640Z,7.60
2019-02-27T10:49:54.796Z,6.25
2019-02-27T10:52:24.272Z,6.90
2019-02-27T10:54:49.077Z,7.45
2019-02-27T10:57:15.236Z,7.90
2019-02-27T10:59:41.435Z,7.67
2019-02-27T11:02:09.745Z,6.85
2019-02-27T11:04:36.356Z,7.92
2019-02-27T11:07:04.013Z,7.55
2019-02-27T11:09:30.275Z,7.42
2019-02-27T11:11:56.689Z,7.20
2019-02-27T11:14:22.857Z,7.87
2019-02-27T11:16:49.039Z,7.40
2019-02-27T11:19:16.615Z,7.30
2019-02-27T11:21:43.613Z,7.25
2019-02-27T11:24:09.783Z,7.55
2019-02-27T11:26:35.963Z,6.87
2019-02-27T11:29:02.153Z,7.65
2019-02-27T11:31:28.342Z,8.18
2019-02-27T11:33:54.494Z,7.90
2019-02-27T11:36:20.693Z,7.87
2019-02-27T11:38:46.873Z,8.00
2019-02-27T11:41:15.309Z,7.80
2019-02-27T11:43:41.510Z,8.40
2019-02-27T11:46:07.819Z,7.55
2019-02-27T11:48:33.987Z,7.87
2019-02-27T11:51:00.159Z,7.42
2019-02-27T11:53:26.332Z,7.90
2019-02-27T11:55:52.508Z,7.47
2019-02-27T11:58:18.893Z,7.45
2019-02-27T12:00:45.077Z,6.87
2019-02-27T12:03:11.994Z,7.40
2019-02-27T12:05:38.301Z,7.30
2019-02-27T12:08:04.504Z,7.78
2019-02-27T12:10:31.195Z,7.72
2019-02-27T12:13:00.722Z,7.37
2019-02-27T12:15:27.209Z,7.35
2019-02-27T12:17:53.704Z,6.92
2019-02-27T12:20:20.497Z,6.85
2019-02-27T12:22:46.664Z,7.62
2019-02-27T12:25:14.505Z,7.70
2019-02-27T12:27:49.015Z,6.45
2019-02-27T12:30:12.411Z,6.70
2019-02-27T12:32:38.599Z,6.70
2019-02-27T12:35:10.839Z,7.50
2019-02-27T12:37:36.592Z,7.53
2019-02-27T12:40:06.001Z,7.40
2019-02-27T12:42:37.235Z,7.42
2019-02-27T12:45:00.362Z,6.85
2019-02-27T12:47:26.557Z,6.95
2019-02-27T12:49:54.198Z,6.95
2019-02-27T12:52:22.695Z,7.78
2019-02-27T12:54:48.950Z,6.70
2019-02-27T12:57:17.448Z,7.17
2019-02-27T12:59:43.254Z,7.58
2019-02-27T13:02:10.863Z,7.62
2019-02-27T13:04:37.452Z,7.70
2019-02-27T13:07:03.988Z,7.53
2019-02-27T13:09:30.165Z,7.15
2019-02-27T13:11:56.480Z,7.17
2019-02-27T13:14:22.744Z,7.78
2019-02-27T13:16:49.499Z,6.87
2019-02-27T13:19:16.636Z,7.28
2019-02-27T13:21:42.800Z,6.50
2019-02-27T13:24:08.968Z,7.10
2019-02-27T13:26:35.413Z,6.37
2019-02-27T13:29:01.736Z,6.30
2019-02-27T13:31:27.950Z,6.50
2019-02-27T13:33:55.167Z,5.95
2019-02-27T13:36:22.620Z,6.30
2019-02-27T13:38:49.563Z,5.45
2019-02-27T13:41:17.421Z,5.90
2019-02-27T13:43:43.601Z,5.60
2019-02-27T13:46:09.774Z,6.15
2019-02-27T13:48:37.406Z,5.80
2019-02-27T13:51:04.205Z,5.03
2019-02-27T13:53:30.492Z,5.53
2019-02-27T13:55:56.774Z,5.10
2019-02-27T13:58:23.000Z,4.75
2019-02-27T14:00:49.483Z,4.97
2019-02-27T14:03:21.362Z,5.25
2019-02-27T14:05:48.195Z,5.17
2019-02-27T14:08:14.408Z,4.50
2019-02-27T14:10:40.599Z,4.58
2019-02-27T14:13:09.680Z,4.62
2019-02-27T14:15:34.914Z,4.58
2019-02-27T14:18:01.113Z,4.40
2019-02-27T14:20:28.977Z,4.03
2019-02-27T14:22:55.449Z,4.35
2019-02-27T14:25:29.857Z,4.05
2019-02-27T14:27:54.625Z,4.08
2019-02-27T14:30:24.036Z,4.33
2019-02-27T14:32:50.229Z,3.80
2019-02-27T14:35:16.828Z,4.65
2019-02-27T14:37:42.984Z,4.35
2019-02-27T14:40:12.573Z,4.72
2019-02-27T14:42:38.973Z,5.50
2019-02-27T14:45:17.385Z,4.83
2019-02-27T14:47:43.571Z,4.97
2019-02-27T14:50:15.586Z,4.75
2019-02-27T14:52:41.872Z,4.60
2019-02-27T14:55:11.262Z,4.10
2019-02-27T14:57:37.429Z,4.28
2019-02-27T15:00:07.441Z,4.75
2019-02-27T15:02:33.807Z,5.12
2019-02-27T15:04:59.992Z,5.28
2019-02-27T15:07:26.172Z,4.83
2019-02-27T15:09:52.341Z,4.90
2019-02-27T15:12:19.428Z,5.22
2019-02-27T15:14:46.559Z,5.15
2019-02-27T15:17:12.733Z,4.80
2019-02-27T15:19:40.900Z,5.47
2019-02-27T15:22:07.298Z,4.70
2019-02-27T15:24:34.774Z,4.15
2019-02-27T15:27:01.617Z,3.65
2019-02-27T15:29:28.003Z,4.53
2019-02-27T15:31:54.806Z,4.50
2019-02-27T15:34:21.728Z,4.42
2019-02-27T15:36:48.065Z,4.65
2019-02-27T15:39:20.234Z,5.12
2019-02-27T15:41:44.460Z,5.00
2019-02-27T15:44:10.645Z,4.70
2019-02-27T15:46:37.058Z,5.42
2019-02-27T15:49:03.289Z,5.05
2019-02-27T15:51:32.347Z,4.62
2019-02-27T15:53:57.567Z,5.17
2019-02-27T15:56:23.732Z,5.37
2019-02-27T15:58:50.041Z,4.87
2019-02-27T16:01:16.453Z,5.30
2019-02-27T16:03:45.449Z,4.78
2019-02-27T16:06:10.864Z,4.78
2019-02-27T16:08:37.044Z,4.78
2019-02-27T16:11:03.290Z,5.05
2019-02-27T16:13:32.063Z,4.53
2019-02-27T16:15:57.551Z,5.37
2019-02-27T16:18:23.748Z,5.17
2019-02-27T16:20:50.607Z,5.12
2019-02-27T16:23:16.909Z,5.62
2019-02-27T16:25:43.099Z,5.37
2019-02-27T16:28:12.033Z,5.62
2019-02-27T16:30:37.376Z,6.15
2019-02-27T16:33:03.545Z,5.28
2019-02-27T16:35:29.756Z,5.60
2019-02-27T16:37:57.555Z,5.85
2019-02-27T16:40:28.312Z,5.28
2019-02-27T16:42:54.489Z,5.17
2019-02-27T16:45:29.419Z,5.15
2019-02-27T16:47:57.238Z,4.67
2019-02-27T16:50:25.497Z,5.05
2019-02-27T16:52:52.586Z,4.75
2019-02-27T16:55:20.484Z,5.15
2019-02-27T16:57:46.635Z,5.28
2019-02-27T17:00:21.761Z,5.28
2019-02-27T17:02:47.977Z,5.20
2019-02-27T17:05:14.160Z,4.97
2019-02-27T17:07:40.377Z,5.47
2019-02-27T17:10:14.935Z,4.67
2019-02-27T17:12:41.565Z,5.33
2019-02-27T17:15:07.815Z,4.92
2019-02-27T17:17:33.976Z,4.60
2019-02-27T17:20:00.279Z,4.58
2019-02-27T17:22:26.612Z,4.35
2019-02-27T17:24:55.156Z,4.55
2019-02-27T17:27:21.128Z,4.22
2019-02-27T17:29:47.366Z,5.30
2019-02-27T17:32:13.549Z,4.85
2019-02-27T17:34:47.163Z,4.58
2019-02-27T17:37:10.680Z,4.65
2019-02-27T17:39:36.860Z,4.60
2019-02-27T17:42:03.057Z,4.70
2019-02-27T17:44:29.224Z,5.00
2019-02-27T17:46:55.595Z,4.33
2019-02-27T17:49:22.214Z,4.42
2019-02-27T17:51:50.059Z,4.50
2019-02-27T17:54:16.337Z,4.28
2019-02-27T17:56:47.152Z,4.42
2019-02-27T17:59:13.800Z,5.12
2019-02-27T18:01:40.072Z,4.72
2019-02-27T18:04:06.274Z,4.90
2019-02-27T18:06:34.797Z,5.05
2019-02-27T18:09:00.568Z,5.50
2019-02-27T18:11:26.728Z,5.28
2019-02-27T18:13:53.206Z,4.72
2019-02-27T18:16:19.418Z,6.45
2019-02-27T18:18:47.311Z,5.47
2019-02-27T18:21:15.484Z,5.70
2019-02-27T18:23:43.572Z,5.62
2019-02-27T18:26:12.285Z,6.47
2019-02-27T18:28:37.849Z,5.08
2019-02-27T18:31:04.091Z,5.50
2019-02-27T18:33:30.540Z,6.35
2019-02-27T18:35:56.832Z,5.10
2019-02-27T18:38:27.636Z,5.28
2019-02-27T18:40:51.542Z,5.28
2019-02-27T18:43:20.821Z,5.80
2019-02-27T18:45:48.142Z,5.67
2019-02-27T18:48:15.250Z,6.72
2019-02-27T18:50:41.544Z,6.53
2019-02-27T18:53:13.098Z,6.17
2019-02-27T18:55:35.969Z,6.22
2019-02-27T18:58:02.136Z,5.55
2019-02-27T19:00:28.522Z,6.37
2019-02-27T19:03:04.128Z,6.97
2019-02-27T19:05:30.315Z,6.47
2019-02-27T19:07:56.475Z,6.47
2019-02-27T19:10:22.683Z,6.17
2019-02-27T19:12:48.940Z,6.67
2019-02-27T19:15:25.596Z,6.28
2019-02-27T19:17:51.795Z,6.00
2019-02-27T19:20:25.160Z,6.08
2019-02-27T19:22:52.872Z,5.67
2019-02-27T19:25:19.626Z,6.12
2019-02-27T19:27:45.826Z,6.22
2019-02-27T19:30:15.191Z,5.67
2019-02-27T19:32:41.381Z,5.65
2019-02-27T19:35:07.786Z,6.83
2019-02-27T19:37:38.664Z,5.72
2019-02-27T19:40:03.168Z,5.00
2019-02-27T19:42:31.280Z,4.60
2019-02-27T19:45:03.638Z,4.40
2019-02-27T19:47:25.580Z,4.12
2019-02-27T19:49:51.825Z,4.15
2019-02-27T19:52:17.993Z,4.05
2019-02-27T19:54:44.163Z,3.58
2019-02-27T19:57:10.402Z,3.40
2019-02-27T19:59:41.711Z,3.30
2019-02-27T20:02:07.909Z,3.45
2019-02-27T20:04:34.484Z,4.20
2019-02-27T20:07:01.842Z,3.58
2019-02-27T20:09:28.725Z,3.55
2019-02-27T20:11:55.044Z,3.65
2019-02-27T20:14:23.294Z,3.62
2019-02-27T20:16:49.518Z,3.60
2019-02-27T20:19:22.162Z,3.77
2019-02-27T20:21:44.588Z,4.25
2019-02-27T20:24:14.511Z,3.90
2019-02-27T20:26:44.433Z,5.00
2019-02-27T20:29:07.846Z,4.95
2019-02-27T20:31:34.031Z,4.03
2019-02-27T20:34:00.400Z,4.33
2019-02-27T20:36:30.282Z,4.30
2019-02-27T20:38:54.702Z,3.85
2019-02-27T20:41:21.016Z,3.98
2019-02-27T20:43:47.340Z,5.20
2019-02-27T20:46:14.759Z,4.35
2019-02-27T20:48:41.658Z,4.30
2019-02-27T20:51:07.847Z,4.62
2019-02-27T20:53:33.996Z,4.60
2019-02-27T20:56:02.885Z,5.05
2019-02-27T20:58:28.535Z,5.45
2019-02-27T21:00:54.732Z,4.62
2019-02-27T21:03:20.918Z,4.60
2019-02-27T21:05:48.545Z,4.25
2019-02-27T21:08:14.877Z,4.67
2019-02-27T21:10:41.065Z,4.72
2019-02-27T21:13:07.321Z,5.17
2019-02-27T21:15:33.582Z,4.22
2019-02-27T21:17:59.922Z,4.90
2019-02-27T21:20:26.193Z,4.85
2019-02-27T21:22:52.406Z,5.00
2019-02-27T21:25:18.593Z,4.60
2019-02-27T21:27:45.063Z,5.03
2019-02-27T21:30:19.920Z,5.87
2019-02-27T21:32:46.080Z,5.08
2019-02-27T21:35:12.262Z,5.20
2019-02-27T21:37:41.281Z,4.80
2019-02-27T21:40:15.131Z,5.00
2019-02-27T21:42:41.307Z,4.47
2019-02-27T21:45:16.104Z,4.80
2019-02-27T21:47:42.286Z,4.58
2019-02-27T21:50:10.700Z,4.37
2019-02-27T21:52:36.880Z,4.28
2019-02-27T21:55:03.048Z,4.30
2019-02-27T21:57:29.368Z,4.30
2019-02-27T21:59:55.552Z,4.83
2019-02-27T22:02:21.724Z,4.05
2019-02-27T22:04:47.921Z,4.12
2019-02-27T22:07:14.087Z,4.20
2019-02-27T22:09:40.273Z,4.65
2019-02-27T22:12:06.433Z,3.60
2019-02-27T22:14:32.627Z,3.20
2019-02-27T22:17:01.641Z,3.60
2019-02-27T22:19:26.888Z,4.47
2019-02-27T22:21:53.071Z,4.20
2019-02-27T22:24:21.033Z,4.40
2019-02-27T22:26:47.391Z,4.28
2019-02-27T22:29:13.748Z,4.17
2019-02-27T22:31:40.552Z,4.65
2019-02-27T22:34:07.488Z,4.25
2019-02-27T22:36:33.676Z,3.72
2019-02-27T22:39:01.035Z,3.77
2019-02-27T22:41:29.311Z,3.70
2019-02-27T22:43:56.416Z,3.92
2019-02-27T22:46:22.767Z,3.70
2019-02-27T22:48:48.923Z,3.60
2019-02-27T22:51:15.307Z,4.45
2019-02-27T22:53:43.428Z,3.83
2019-02-27T22:56:15.914Z,3.80
2019-02-27T22:58:40.921Z,4.05
2019-02-27T23:01:10.921Z,4.33
2019-02-27T23:03:44.088Z,3.95
2019-02-27T23:06:12.324Z,3.83
2019-02-27T23:08:38.549Z,4.65
2019-02-27T23:11:04.736Z,4.28
2019-02-27T23:13:30.889Z,3.65
2019-02-27T23:15:58.904Z,3.95
2019-02-27T23:18:25.243Z,4.20
2019-02-27T23:20:52.469Z,3.70
2019-02-27T23:23:19.545Z,3.98
2019-02-27T23:25:46.470Z,3.33
2019-02-27T23:28:13.526Z,3.02
2019-02-27T23:30:39.701Z,2.90
2019-02-27T23:33:05.868Z,3.12
2019-02-27T23:35:32.081Z,3.08
2019-02-27T23:38:03.066Z,3.40
2019-02-27T23:40:26.352Z,3.15
2019-02-27T23:42:52.515Z,3.67
2019-02-27T23:45:18.677Z,2.92
2019-02-27T23:47:44.884Z,2.92
2019-02-27T23:50:12.318Z,2.80
2019-02-27T23:52:38.461Z,2.62
2019-02-27T23:55:07.123Z,2.47
2019-02-27T23:57:33.872Z,2.80
